Time;durP1;ratioP1;P1;durP2;ratioP2;P2;SDS_P1;SDS_P2;PMS_P1;PMS_P2;Temp;Humidity;BMP_temperature;BMP_pressure;BME280_temperature;BME280_humidity;BME280_pressure;Samples;Min_cycle;Max_cycle;Signal;HPM_P1;HPM_P2
2023/07/10 00:00:20;;;;;;;3.40;2.50;;;;;26.10;101894.00;;;;5073887;28;20206;-79
2023/07/10 00:02:48;;;;;;;3.00;2.53;;;;;26.10;101899.00;;;;5077280;28;20205;-79
2023/07/10 00:05:18;;;;;;;7.40;2.85;;;;;26.10;101902.00;;;;5088039;28;20611;-79
2023/07/10 00:07:45;;;;;;;3.42;2.88;;;;;26.00;101896.00;;;;5086274;28;20194;-79
2023/07/10 00:10:15;;;;;;;3.80;2.45;;;;;26.00;101891.00;;;;5081382;28;20206;-79
2023/07/10 00:12:44;;;;;;;4.30;2.42;;;;;26.00;101883.00;;;;5074103;28;20195;-79
2023/07/10 00:15:15;;;;;;;2.83;2.35;;;;;26.00;101875.00;;;;5084838;28;20190;-79
2023/07/10 00:17:45;;;;;;;5.72;2.55;;;;;26.00;101870.00;;;;5087418;28;20199;-79
2023/07/10 00:20:17;;;;;;;4.63;2.40;;;;;25.90;101875.00;;;;5087225;28;20213;-79
2023/07/10 00:22:45;;;;;;;3.70;2.33;;;;;25.90;101872.00;;;;5091340;28;20198;-79
2023/07/10 00:25:15;;;;;;;3.85;2.80;;;;;25.90;101877.00;;;;5107246;28;20221;-79
2023/07/10 00:27:44;;;;;;;6.43;2.25;;;;;25.90;101882.00;;;;5087827;28;20226;-79
2023/07/10 00:30:17;;;;;;;3.30;2.38;;;;;25.80;101899.00;;;;5085233;28;20209;-79
2023/07/10 00:32:45;;;;;;;5.97;2.55;;;;;25.80;101902.00;;;;5087427;28;20241;-79
2023/07/10 00:35:16;;;;;;;3.88;2.25;;;;;25.80;101889.00;;;;5089551;28;20209;-79
2023/07/10 00:37:45;;;;;;;3.47;1.85;;;;;25.80;101880.00;;;;5089296;28;20199;-79
2023/07/10 00:40:22;;;;;;;6.55;2.08;;;;;25.70;101878.00;;;;5090362;28;20217;-79
2023/07/10 00:43:01;;;;;;;2.38;1.77;;;;;25.70;101876.00;;;;5090490;28;20202;-79
2023/07/10 00:45:29;;;;;;;7.80;2.75;;;;;25.80;101873.00;;;;5089484;28;20222;-80
2023/07/10 00:48:05;;;;;;;3.35;2.25;;;;;25.70;101876.00;;;;5090135;28;20191;-79
2023/07/10 00:50:37;;;;;;;2.92;2.03;;;;;25.70;101876.00;;;;5090708;28;20198;-80
2023/07/10 00:53:11;;;;;;;4.45;2.22;;;;;25.70;101879.00;;;;5088542;28;20201;-79
2023/07/10 00:55:40;;;;;;;5.35;1.90;;;;;25.70;101874.00;;;;5090334;28;20190;-79
2023/07/10 00:58:29;;;;;;;6.13;2.25;;;;;25.60;101876.00;;;;5089788;28;20198;-80
2023/07/10 01:01:05;;;;;;;2.67;2.20;;;;;25.60;101880.00;;;;5085971;28;20208;-79
2023/07/10 01:03:33;;;;;;;5.70;2.67;;;;;25.60;101885.00;;;;5090374;28;20197;-79
2023/07/10 01:06:05;;;;;;;2.42;1.75;;;;;25.60;101883.00;;;;5090482;28;20229;-79
2023/07/10 01:08:33;;;;;;;4.45;2.40;;;;;25.60;101881.00;;;;5090209;28;20198;-79
2023/07/10 01:11:01;;;;;;;2.20;1.80;;;;;25.60;101882.00;;;;5081455;28;20210;-80
2023/07/10 01:13:29;;;;;;;4.00;2.10;;;;;25.50;101860.00;;;;5092388;28;20220;-79
2023/07/10 01:15:57;;;;;;;3.72;2.10;;;;;25.60;101863.00;;;;5093012;28;20229;-80
2023/07/10 01:18:25;;;;;;;3.03;2.13;;;;;25.50;101881.00;;;;5083462;28;20205;-79
2023/07/10 01:21:13;;;;;;;5.55;2.70;;;;;25.40;101874.00;;;;5088320;28;20565;-80
2023/07/10 01:23:40;;;;;;;5.78;2.60;;;;;25.50;101871.00;;;;5088529;28;20201;-79
2023/07/10 01:26:08;;;;;;;3.15;1.95;;;;;25.50;101870.00;;;;5088667;28;20786;-80
2023/07/10 01:28:37;;;;;;;3.25;1.88;;;;;25.40;101865.00;;;;5086595;28;20578;-79
2023/07/10 01:31:07;;;;;;;3.35;2.20;;;;;25.40;101861.00;;;;5097593;28;20593;-79
2023/07/10 01:33:37;;;;;;;3.92;2.00;;;;;25.40;101864.00;;;;5091524;27;20237;-80
2023/07/10 01:36:09;;;;;;;2.75;1.88;;;;;25.30;101871.00;;;;5089570;28;20190;-79
2023/07/10 01:38:39;;;;;;;4.50;2.20;;;;;25.30;101878.00;;;;5089470;28;20210;-80
2023/07/10 01:41:30;;;;;;;2.50;2.10;;;;;25.20;101888.00;;;;5089370;28;20190;-79
2023/07/10 01:43:57;;;;;;;4.53;2.33;;;;;25.30;101887.00;;;;5072462;28;20206;-79
2023/07/10 01:46:27;;;;;;;3.42;2.50;;;;;25.20;101888.00;;;;5087297;28;20687;-79
2023/07/10 01:48:58;;;;;;;3.78;3.00;;;;;25.20;101887.00;;;;5105557;28;20205;-80
2023/07/10 01:51:26;;;;;;;3.53;2.25;;;;;25.20;101877.00;;;;5102958;28;20565;-80
2023/07/10 01:53:54;;;;;;;2.92;2.47;;;;;25.10;101879.00;;;;5089902;28;20199;-77
2023/07/10 01:56:23;;;;;;;4.53;2.55;;;;;25.10;101881.00;;;;5089348;28;20688;-77
2023/07/10 01:58:52;;;;;;;5.72;2.70;;;;;25.10;101882.00;;;;5090028;28;20226;-79
2023/07/10 02:01:19;;;;;;;3.35;2.38;;;;;25.10;101886.00;;;;5089754;28;20251;-80
2023/07/10 02:03:47;;;;;;;3.05;2.17;;;;;25.00;101883.00;;;;5090168;28;20209;-80
2023/07/10 02:06:14;;;;;;;3.38;2.88;;;;;25.00;101887.00;;;;5091463;28;20225;-79
2023/07/10 02:08:43;;;;;;;8.60;3.17;;;;;25.00;101886.00;;;;5088575;28;20198;-79
2023/07/10 02:11:12;;;;;;;4.10;2.72;;;;;24.90;101877.00;;;;5088672;28;20199;-79
2023/07/10 02:13:39;;;;;;;4.18;2.88;;;;;24.90;101887.00;;;;5089867;28;20194;-79
2023/07/10 02:16:10;;;;;;;3.65;2.88;;;;;24.90;101883.00;;;;5088245;28;20225;-79
2023/07/10 02:18:37;;;;;;;5.93;3.30;;;;;24.80;101883.00;;;;5088570;28;20210;-79
2023/07/10 02:21:05;;;;;;;5.45;3.78;;;;;24.80;101885.00;;;;5087536;28;20199;-79
2023/07/10 02:23:34;;;;;;;5.53;3.13;;;;;24.80;101881.00;;;;5104395;28;20190;-79
2023/07/10 02:26:03;;;;;;;3.78;3.30;;;;;24.70;101885.00;;;;5086029;28;20253;-79
2023/07/10 02:28:31;;;;;;;5.95;2.97;;;;;24.70;101878.00;;;;5085911;28;20201;-79
2023/07/10 02:30:58;;;;;;;3.20;2.90;;;;;24.70;101878.00;;;;5087750;28;20202;-79
2023/07/10 02:33:25;;;;;;;3.15;2.35;;;;;24.70;101877.00;;;;5084668;28;20788;-79
2023/07/10 02:35:53;;;;;;;3.60;2.42;;;;;24.70;101878.00;;;;5088139;28;20210;-79
2023/07/10 02:38:20;;;;;;;3.85;2.60;;;;;24.70;101881.00;;;;5090047;28;20205;-79
2023/07/10 02:40:47;;;;;;;3.38;2.50;;;;;24.60;101882.00;;;;5090432;28;20205;-79
2023/07/10 02:43:16;;;;;;;3.25;2.55;;;;;24.60;101878.00;;;;5087117;28;20229;-80
2023/07/10 02:45:44;;;;;;;2.40;2.00;;;;;24.60;101880.00;;;;5088046;28;20233;-79
2023/07/10 02:48:11;;;;;;;4.28;2.20;;;;;24.60;101878.00;;;;5086749;28;20190;-80
2023/07/10 02:50:38;;;;;;;3.67;2.22;;;;;24.60;101882.00;;;;5088720;28;20651;-80
2023/07/10 02:53:06;;;;;;;3.72;2.38;;;;;24.50;101894.00;;;;5087160;28;20960;-79
2023/07/10 02:55:33;;;;;;;5.28;2.35;;;;;24.50;101892.00;;;;5086685;28;20426;-80
2023/07/10 02:58:01;;;;;;;3.85;2.95;;;;;24.50;101894.00;;;;5087139;28;20206;-79
2023/07/10 03:00:30;;;;;;;3.53;1.95;;;;;24.50;101883.00;;;;5087325;28;20222;-79
2023/07/10 03:02:57;;;;;;;4.45;1.73;;;;;24.50;101889.00;;;;5086785;28;20209;-79
2023/07/10 03:05:25;;;;;;;3.85;2.10;;;;;24.40;101887.00;;;;5088361;28;20230;-80
2023/07/10 03:07:52;;;;;;;4.13;2.20;;;;;24.40;101894.00;;;;5085438;28;20206;-80
2023/07/10 03:10:21;;;;;;;3.25;1.60;;;;;24.40;101890.00;;;;5077769;28;20273;-80
2023/07/10 03:12:48;;;;;;;3.97;2.00;;;;;24.30;101896.00;;;;5086199;28;20940;-79
2023/07/10 03:15:15;;;;;;;3.47;1.85;;;;;24.30;101899.00;;;;5087814;28;20214;-79
2023/07/10 03:17:45;;;;;;;4.50;1.80;;;;;24.30;101898.00;;;;5088508;28;20204;-79
2023/07/10 03:20:13;;;;;;;2.28;1.73;;;;;24.20;101896.00;;;;5087663;28;20201;-79
2023/07/10 03:22:40;;;;;;;2.70;1.85;;;;;24.20;101898.00;;;;5088441;28;20212;-79
2023/07/10 03:25:08;;;;;;;3.05;1.33;;;;;24.20;101902.00;;;;5087309;28;20237;-80
2023/07/10 03:27:36;;;;;;;4.38;2.00;;;;;24.20;101902.00;;;;5081413;28;20209;-79
2023/07/10 03:30:04;;;;;;;5.45;1.95;;;;;24.10;101905.00;;;;5084204;28;20198;-79
2023/07/10 03:32:31;;;;;;;3.17;1.95;;;;;24.10;101907.00;;;;5084930;28;20197;-79
2023/07/10 03:35:00;;;;;;;3.45;1.77;;;;;24.10;101909.00;;;;5086069;28;20201;-79
2023/07/10 03:37:28;;;;;;;3.58;2.47;;;;;24.10;101914.00;;;;5070786;28;20197;-79
2023/07/10 03:39:56;;;;;;;4.30;2.17;;;;;24.00;101910.00;;;;5082740;28;20182;-79
2023/07/10 03:42:23;;;;;;;2.83;1.55;;;;;24.00;101914.00;;;;5082870;28;20426;-79
2023/07/10 03:44:51;;;;;;;2.00;1.80;;;;;24.00;101917.00;;;;5085102;28;20191;-79
2023/07/10 03:47:18;;;;;;;2.42;1.63;;;;;24.00;101914.00;;;;5088123;28;20198;-79
2023/07/10 03:49:45;;;;;;;3.13;1.98;;;;;24.00;101923.00;;;;5087649;28;20198;-78
2023/07/10 03:52:14;;;;;;;3.22;2.00;;;;;23.90;101928.00;;;;5086769;28;20209;-79
2023/07/10 03:54:41;;;;;;;2.13;1.92;;;;;23.90;101922.00;;;;5072374;28;20218;-79
2023/07/10 03:57:09;;;;;;;3.10;1.80;;;;;23.90;101926.00;;;;5077196;28;20842;-79
2023/07/10 03:59:36;;;;;;;2.35;1.73;;;;;23.90;101928.00;;;;5085555;28;20201;-78
2023/07/10 04:02:03;;;;;;;6.53;1.95;;;;;23.90;101930.00;;;;5086277;28;20191;-78
2023/07/10 04:04:30;;;;;;;1.98;1.75;;;;;23.90;101925.00;;;;5081528;28;20210;-79
2023/07/10 04:06:58;;;;;;;2.53;1.73;;;;;23.90;101934.00;;;;5088098;28;20222;-79
2023/07/10 04:09:26;;;;;;;3.75;2.45;;;;;23.80;101930.00;;;;5089918;28;20202;-78
2023/07/10 04:11:54;;;;;;;3.75;2.03;;;;;23.80;101936.00;;;;5092869;28;20198;-79
2023/07/10 04:14:21;;;;;;;3.50;2.28;;;;;23.80;101931.00;;;;5091112;28;20205;-78
2023/07/10 04:16:53;;;;;;;4.32;2.00;;;;;23.80;101936.00;;;;5075366;28;20210;-79
2023/07/10 04:19:20;;;;;;;2.28;1.80;;;;;23.80;101939.00;;;;5092106;28;20237;-78
2023/07/10 04:21:47;;;;;;;4.65;1.83;;;;;23.80;101940.00;;;;5092334;28;20679;-79
2023/07/10 04:24:16;;;;;;;2.90;2.10;;;;;23.80;101949.00;;;;5090643;28;20210;-79
2023/07/10 04:26:45;;;;;;;2.42;1.67;;;;;23.80;101955.00;;;;5091664;28;20229;-79
2023/07/10 04:29:13;;;;;;;2.45;1.90;;;;;23.80;101955.00;;;;5088349;28;20210;-79
2023/07/10 04:31:40;;;;;;;3.30;2.30;;;;;23.80;101954.00;;;;5091244;28;20593;-78
2023/07/10 04:34:08;;;;;;;3.72;1.90;;;;;23.80;101962.00;;;;5088471;28;20222;-79
2023/07/10 04:36:35;;;;;;;3.63;2.30;;;;;23.80;101962.00;;;;5078467;28;20201;-78
2023/07/10 04:39:03;;;;;;;2.92;2.03;;;;;23.90;101960.00;;;;5083453;28;20199;-78
2023/07/10 04:41:30;;;;;;;2.60;2.30;;;;;23.90;101951.00;;;;5083606;28;20194;-79
2023/07/10 04:44:00;;;;;;;3.45;2.15;;;;;23.80;101950.00;;;;5082142;28;20206;-79
2023/07/10 04:46:27;;;;;;;2.67;1.75;;;;;23.90;101955.00;;;;5088362;28;20233;-79
2023/07/10 04:48:55;;;;;;;3.50;1.90;;;;;23.90;101946.00;;;;5088212;28;20202;-78
2023/07/10 04:51:22;;;;;;;2.30;1.70;;;;;23.90;101946.00;;;;5086225;28;20198;-78
2023/07/10 04:53:50;;;;;;;2.55;2.00;;;;;23.90;101945.00;;;;5087048;28;20201;-79
2023/07/10 04:56:19;;;;;;;5.10;1.85;;;;;23.90;101937.00;;;;5091798;28;20198;-79
2023/07/10 04:58:49;;;;;;;2.85;2.20;;;;;24.00;101948.00;;;;5085364;28;20283;-80
2023/07/10 05:01:19;;;;;;;3.78;2.15;;;;;24.00;101951.00;;;;5084533;28;20190;-79
2023/07/10 05:03:48;;;;;;;3.25;2.15;;;;;24.00;101951.00;;;;5090565;28;20199;-79
2023/07/10 05:06:16;;;;;;;5.22;2.15;;;;;24.00;101951.00;;;;5089005;28;20257;-79
2023/07/10 05:08:44;;;;;;;2.70;2.05;;;;;24.00;101960.00;;;;5090698;28;20213;-79
2023/07/10 05:11:11;;;;;;;2.83;1.90;;;;;24.10;101954.00;;;;5091253;28;20694;-79
2023/07/10 05:13:39;;;;;;;3.17;2.33;;;;;24.10;101954.00;;;;5090706;28;20197;-79
2023/07/10 05:16:06;;;;;;;4.47;2.75;;;;;24.10;101963.00;;;;5090109;28;20217;-78
2023/07/10 05:18:35;;;;;;;4.63;2.50;;;;;24.10;101964.00;;;;5087673;28;20206;-78
2023/07/10 05:21:04;;;;;;;3.65;2.65;;;;;24.20;101963.00;;;;5087916;28;20190;-77
2023/07/10 05:23:31;;;;;;;3.72;2.65;;;;;24.20;101959.00;;;;5090932;28;20197;-78
2023/07/10 05:26:03;;;;;;;3.50;2.58;;;;;24.20;101953.00;;;;5088249;28;20225;-77
2023/07/10 05:28:31;;;;;;;2.97;2.05;;;;;24.30;101961.00;;;;5084833;28;20203;-78
2023/07/10 05:31:00;;;;;;;4.40;2.60;;;;;24.30;101961.00;;;;5076862;28;20205;-77
2023/07/10 05:33:27;;;;;;;3.20;2.70;;;;;24.40;101962.00;;;;5090322;28;20230;-78
2023/07/10 05:35:58;;;;;;;5.35;2.20;;;;;24.40;101959.00;;;;5087138;28;20199;-78
2023/07/10 05:38:28;;;;;;;3.70;2.30;;;;;24.50;101954.00;;;;5089455;28;20671;-78
2023/07/10 05:40:55;;;;;;;2.35;1.77;;;;;24.60;101964.00;;;;5089845;28;20190;-78
2023/07/10 05:43:23;;;;;;;3.08;1.92;;;;;24.60;101956.00;;;;5087543;28;20206;-77
2023/07/10 05:45:53;;;;;;;3.30;1.65;;;;;24.70;101960.00;;;;5097560;28;20225;-77
2023/07/10 05:48:21;;;;;;;5.15;2.08;;;;;24.70;101951.00;;;;5110403;28;20197;-77
2023/07/10 05:50:49;;;;;;;2.70;1.90;;;;;24.80;101960.00;;;;5109870;28;20197;-78
2023/07/10 05:53:18;;;;;;;3.10;2.42;;;;;24.80;101959.00;;;;5083548;28;20213;-80
2023/07/10 05:55:47;;;;;;;4.60;2.13;;;;;24.90;101959.00;;;;5076738;28;20194;-79
2023/07/10 05:58:15;;;;;;;7.75;2.15;;;;;24.90;101956.00;;;;5085625;28;20194;-78
2023/07/10 06:00:43;;;;;;;2.58;1.80;;;;;25.00;101958.00;;;;5089821;28;20209;-80
2023/07/10 06:03:11;;;;;;;3.05;1.90;;;;;25.00;101963.00;;;;5089300;28;20571;-79
2023/07/10 06:05:38;;;;;;;3.05;1.88;;;;;25.00;101957.00;;;;5083582;28;20577;-80
2023/07/10 06:08:06;;;;;;;2.88;2.35;;;;;25.10;101964.00;;;;5093824;28;20683;-81
2023/07/10 06:10:35;;;;;;;4.18;2.35;;;;;25.10;101966.00;;;;5093985;28;20198;-81
2023/07/10 06:13:03;;;;;;;3.22;1.98;;;;;25.20;101969.00;;;;5089390;28;20194;-80
2023/07/10 06:15:32;;;;;;;3.88;1.98;;;;;25.20;101971.00;;;;5085865;28;20198;-81
2023/07/10 06:18:00;;;;;;;2.88;2.05;;;;;25.30;101974.00;;;;5088805;28;20209;-82
2023/07/10 06:20:27;;;;;;;2.35;1.75;;;;;25.40;101976.00;;;;5089322;28;20590;-80
2023/07/10 06:22:55;;;;;;;2.53;1.52;;;;;25.40;101970.00;;;;5085867;28;20201;-80
2023/07/10 06:25:22;;;;;;;3.90;1.92;;;;;25.50;101975.00;;;;5082505;28;20711;-81
2023/07/10 06:27:51;;;;;;;5.95;2.05;;;;;25.50;101972.00;;;;5086060;28;20221;-79
2023/07/10 06:30:18;;;;;;;3.20;1.45;;;;;25.60;101977.00;;;;5079386;28;20198;-80
2023/07/10 06:32:45;;;;;;;1.88;1.30;;;;;25.60;101968.00;;;;5086307;28;20249;-81
2023/07/10 06:35:13;;;;;;;3.35;1.65;;;;;25.70;101969.00;;;;5088201;28;20206;-79
2023/07/10 06:37:41;;;;;;;5.90;1.55;;;;;25.70;101970.00;;;;5088099;28;20776;-81
2023/07/10 06:40:10;;;;;;;3.10;1.33;;;;;25.70;101978.00;;;;5086279;28;20797;-79
2023/07/10 06:42:38;;;;;;;2.63;1.35;;;;;25.80;101974.00;;;;5088094;28;20205;-81
2023/07/10 06:45:08;;;;;;;5.00;1.60;;;;;25.80;101986.00;;;;5084209;28;20195;-78
2023/07/10 06:47:40;;;;;;;3.88;1.40;;;;;25.80;101986.00;;;;5087017;28;20218;-81
2023/07/10 06:50:09;;;;;;;5.10;1.35;;;;;25.90;101992.00;;;;5087918;28;20198;-80
2023/07/10 06:52:39;;;;;;;2.80;1.42;;;;;25.90;101991.00;;;;5087861;28;20209;-79
2023/07/10 06:55:08;;;;;;;4.90;1.65;;;;;26.00;101988.00;;;;5106133;28;20654;-79
2023/07/10 06:57:35;;;;;;;5.38;1.25;;;;;26.10;101993.00;;;;5099186;28;20294;-80
2023/07/10 07:00:08;;;;;;;7.45;1.40;;;;;26.10;101996.00;;;;5082356;28;20195;-78
2023/07/10 07:02:36;;;;;;;2.92;1.20;;;;;26.20;101992.00;;;;5088036;28;20206;-80
2023/07/10 07:05:03;;;;;;;3.08;1.25;;;;;26.20;101995.00;;;;5081858;28;20202;-80
2023/07/10 07:07:32;;;;;;;1.05;0.60;;;;;26.30;102010.00;;;;5081921;28;20217;-80
2023/07/10 07:10:00;;;;;;;3.05;1.55;;;;;26.40;102018.00;;;;5085602;28;20198;-80
2023/07/10 07:12:27;;;;;;;2.28;1.40;;;;;26.40;102011.00;;;;5081579;28;20202;-81
2023/07/10 07:14:55;;;;;;;5.38;1.77;;;;;26.50;102016.00;;;;5077981;28;20198;-82
2023/07/10 07:17:24;;;;;;;1.83;0.90;;;;;26.50;102015.00;;;;5082930;28;20222;-83
2023/07/10 07:19:51;;;;;;;4.20;1.15;;;;;26.60;102013.00;;;;5078426;28;20210;-82
2023/07/10 07:22:18;;;;;;;2.75;1.35;;;;;26.60;102014.00;;;;5088101;28;20198;-80
2023/07/10 07:24:46;;;;;;;3.92;1.30;;;;;26.70;102015.00;;;;5074889;28;20198;-80
2023/07/10 07:27:14;;;;;;;3.28;1.10;;;;;26.70;102016.00;;;;5088411;28;20233;-81
2023/07/10 07:29:41;;;;;;;5.60;1.40;;;;;26.70;102015.00;;;;5086500;28;20235;-79
2023/07/10 07:32:11;;;;;;;3.50;1.30;;;;;26.80;102012.00;;;;5086091;28;20199;-80
2023/07/10 07:34:40;;;;;;;4.47;1.55;;;;;26.80;102013.00;;;;5087864;28;20233;-80
2023/07/10 07:37:07;;;;;;;6.32;1.55;;;;;26.90;102015.00;;;;5071398;28;20202;-79
2023/07/10 07:39:34;;;;;;;5.47;1.25;;;;;27.00;102020.00;;;;5086138;28;20672;-81
2023/07/10 07:42:02;;;;;;;4.75;1.50;;;;;27.00;102026.00;;;;5074500;28;20711;-80
2023/07/10 07:44:29;;;;;;;3.15;1.00;;;;;27.10;102033.00;;;;5085114;28;20198;-80
2023/07/10 07:46:58;;;;;;;3.67;1.13;;;;;27.10;102030.00;;;;5081781;28;20587;-80
2023/07/10 07:49:26;;;;;;;5.35;1.27;;;;;27.10;102030.00;;;;5082148;28;20190;-80
2023/07/10 07:51:55;;;;;;;3.22;1.10;;;;;27.20;102026.00;;;;5079730;28;20194;-80
2023/07/10 07:54:22;;;;;;;3.10;1.27;;;;;27.30;102029.00;;;;5084553;28;20194;-80
2023/07/10 07:56:49;;;;;;;5.38;1.25;;;;;27.40;102021.00;;;;5087702;28;20543;-80
2023/07/10 07:59:18;;;;;;;3.83;1.48;;;;;27.40;102018.00;;;;5082514;28;20202;-79
2023/07/10 08:01:45;;;;;;;3.45;1.20;;;;;27.40;102015.00;;;;5080678;28;20677;-79
2023/07/10 08:04:12;;;;;;;2.28;0.77;;;;;27.50;102015.00;;;;5079287;28;20631;-81
2023/07/10 08:06:39;;;;;;;4.10;1.30;;;;;27.50;102017.00;;;;5084608;28;20217;-80
2023/07/10 08:09:08;;;;;;;1.90;1.00;;;;;27.60;102009.00;;;;5085501;28;20398;-80
2023/07/10 08:11:36;;;;;;;4.07;1.50;;;;;27.70;102005.00;;;;5083539;28;21717;-81
2023/07/10 08:14:03;;;;;;;5.47;1.40;;;;;27.70;102010.00;;;;5085618;28;20205;-80
2023/07/10 08:16:30;;;;;;;2.58;0.82;;;;;27.80;102007.00;;;;5082798;28;20228;-80
2023/07/10 08:18:57;;;;;;;3.92;1.10;;;;;27.80;102003.00;;;;5077393;28;20199;-80
2023/07/10 08:21:25;;;;;;;2.50;1.17;;;;;27.80;101997.00;;;;5082925;28;20213;-81
2023/07/10 08:23:52;;;;;;;3.13;1.02;;;;;27.90;102004.00;;;;5083754;28;20202;-80
2023/07/10 08:26:21;;;;;;;2.97;1.15;;;;;27.90;101993.00;;;;5081765;28;20199;-80
2023/07/10 08:28:48;;;;;;;2.65;1.35;;;;;27.90;101996.00;;;;5084887;28;20229;-80
2023/07/10 08:31:15;;;;;;;4.28;1.25;;;;;28.00;102001.00;;;;5083373;28;20394;-80
2023/07/10 08:33:42;;;;;;;2.15;0.90;;;;;28.10;102007.00;;;;5080170;28;20234;-81
2023/07/10 08:36:10;;;;;;;4.45;1.20;;;;;28.20;101999.00;;;;5079691;28;20218;-80
2023/07/10 08:38:38;;;;;;;2.53;0.98;;;;;28.30;102008.00;;;;5080679;28;20194;-79
2023/07/10 08:41:16;;;;;;;3.47;1.40;;;;;28.30;102012.00;;;;5077200;28;20198;-81
2023/07/10 08:43:46;;;;;;;15.77;1.75;;;;;28.40;102011.00;;;;5084282;28;20209;-80
2023/07/10 08:46:19;;;;;;;2.85;1.25;;;;;28.50;102012.00;;;;5080401;28;20203;-80
2023/07/10 08:48:52;;;;;;;2.42;1.05;;;;;28.60;102012.00;;;;5083466;28;20210;-80
2023/07/10 08:51:38;;;;;;;4.43;1.20;;;;;28.70;102007.00;;;;5076632;28;20191;-80
2023/07/10 08:54:07;;;;;;;5.60;1.42;;;;;28.80;102018.00;;;;5080290;28;20203;-82
2023/07/10 08:56:39;;;;;;;2.55;1.60;;;;;28.90;102015.00;;;;5085384;28;20890;-80
2023/07/10 08:59:25;;;;;;;5.95;1.25;;;;;28.90;102015.00;;;;5085386;28;20202;-80
2023/07/10 09:01:53;;;;;;;4.32;1.20;;;;;29.00;102022.00;;;;5082670;28;20205;-80
2023/07/10 09:04:22;;;;;;;4.60;1.58;;;;;29.00;102019.00;;;;5082159;28;20205;-80
2023/07/10 09:06:52;;;;;;;2.13;1.23;;;;;29.00;102025.00;;;;5083229;28;20195;-80
2023/07/10 09:09:36;;;;;;;3.80;1.23;;;;;28.90;102025.00;;;;5091283;28;20733;-81
2023/07/10 09:12:09;;;;;;;3.35;0.80;;;;;29.00;102022.00;;;;5075882;28;20191;-82
2023/07/10 09:14:46;;;;;;;3.50;1.05;;;;;29.00;102019.00;;;;5081498;28;20202;-81
2023/07/10 09:17:20;;;;;;;3.60;1.30;;;;;29.10;102030.00;;;;5083755;28;20218;-79
2023/07/10 09:19:53;;;;;;;5.55;1.15;;;;;29.10;102031.00;;;;5079949;28;20202;-80
2023/07/10 09:22:20;;;;;;;2.95;1.00;;;;;29.20;102033.00;;;;5082455;28;20204;-79
2023/07/10 09:24:48;;;;;;;5.13;1.13;;;;;29.20;102036.00;;;;5086645;28;20198;-78
2023/07/10 09:27:16;;;;;;;1.95;0.68;;;;;29.20;102028.00;;;;5088255;28;20796;-78
2023/07/10 09:29:50;;;;;;;3.15;1.00;;;;;29.30;102027.00;;;;5085512;28;20707;-78
2023/07/10 09:32:20;;;;;;;4.75;1.60;;;;;29.40;102024.00;;;;5080203;28;20286;-79
2023/07/10 09:34:49;;;;;;;4.38;1.02;;;;;29.50;102030.00;;;;5083375;28;20206;-80
2023/07/10 09:37:20;;;;;;;2.20;1.05;;;;;29.50;102037.00;;;;5081675;28;20198;-79
2023/07/10 09:39:48;;;;;;;3.55;1.30;;;;;29.50;102043.00;;;;5080291;28;20198;-79
2023/07/10 09:42:18;;;;;;;4.15;1.10;;;;;29.60;102036.00;;;;5082186;28;20202;-80
2023/07/10 09:45:08;;;;;;;2.22;0.82;;;;;29.50;102039.00;;;;5083551;28;20205;-80
2023/07/10 09:47:40;;;;;;;2.13;0.80;;;;;29.70;102038.00;;;;5076787;28;20715;-80
2023/07/10 09:50:15;;;;;;;4.93;1.30;;;;;29.70;102029.00;;;;5083793;28;20195;-81
2023/07/10 09:52:43;;;;;;;6.47;1.00;;;;;29.70;102029.00;;;;5079499;28;20193;-80
2023/07/10 09:55:15;;;;;;;2.10;0.93;;;;;29.70;102029.00;;;;5080078;28;20627;-79
2023/07/10 09:57:53;;;;;;;2.95;1.13;;;;;29.70;102021.00;;;;5079473;28;20202;-80
2023/07/10 10:00:23;;;;;;;2.45;1.08;;;;;29.70;102032.00;;;;5074965;28;20955;-80
2023/07/10 10:02:56;;;;;;;4.28;0.90;;;;;29.70;102029.00;;;;5076857;28;20202;-80
2023/07/10 10:05:24;;;;;;;4.00;1.15;;;;;29.70;102032.00;;;;5077204;28;20256;-80
2023/07/10 10:07:52;;;;;;;1.98;0.70;;;;;29.60;102031.00;;;;5079694;28;20223;-81
2023/07/10 10:10:24;;;;;;;2.63;0.95;;;;;29.60;102022.00;;;;5079226;28;20205;-81
2023/07/10 10:12:57;;;;;;;3.00;0.93;;;;;29.70;102024.00;;;;5075301;28;20564;-80
2023/07/10 10:15:34;;;;;;;3.55;0.95;;;;;29.70;102019.00;;;;5076806;28;20194;-80
2023/07/10 10:18:05;;;;;;;2.55;1.17;;;;;29.80;102016.00;;;;5082470;28;20194;-80
2023/07/10 10:20:35;;;;;;;2.85;0.90;;;;;29.90;102021.00;;;;5078925;28;20583;-80
2023/07/10 10:23:03;;;;;;;2.55;0.88;;;;;29.90;102019.00;;;;5080010;28;20217;-80
2023/07/10 10:25:37;;;;;;;3.63;0.85;;;;;29.90;102016.00;;;;5083301;28;20671;-81
2023/07/10 10:28:23;;;;;;;2.40;0.85;;;;;29.90;102028.00;;;;5078524;28;20218;-80
2023/07/10 10:30:58;;;;;;;5.45;0.88;;;;;30.00;102032.00;;;;5076026;28;20203;-78
2023/07/10 10:33:34;;;;;;;4.15;1.00;;;;;30.10;102039.00;;;;5079663;28;20225;-79
2023/07/10 10:36:21;;;;;;;4.80;1.10;;;;;30.00;102025.00;;;;5079386;28;20197;-78
2023/07/10 10:38:56;;;;;;;2.10;0.80;;;;;30.10;102027.00;;;;5078136;28;20206;-78
2023/07/10 10:41:35;;;;;;;2.78;1.00;;;;;30.10;102021.00;;;;5078497;28;20198;-80
2023/07/10 10:44:11;;;;;;;2.28;0.90;;;;;30.10;102021.00;;;;5078015;28;20190;-79
2023/07/10 10:46:53;;;;;;;2.72;1.10;;;;;30.10;102016.00;;;;5079326;28;20209;-80
2023/07/10 10:49:46;;;;;;;3.85;1.02;;;;;30.10;102026.00;;;;5083294;28;20218;-77
2023/07/10 10:52:24;;;;;;;4.03;1.33;;;;;30.20;102030.00;;;;5074773;28;20194;-76
2023/07/10 10:55:15;;;;;;;3.60;0.88;;;;;30.20;102034.00;;;;5081862;28;20202;-77
2023/07/10 10:57:47;;;;;;;2.92;0.85;;;;;30.30;102036.00;;;;5077375;28;20213;-77
2023/07/10 11:00:27;;;;;;;3.42;1.00;;;;;30.40;102042.00;;;;5080247;28;20191;-78
2023/07/10 11:03:11;;;;;;;2.28;1.00;;;;;30.40;102034.00;;;;5078229;28;20194;-77
2023/07/10 11:05:42;;;;;;;2.53;1.00;;;;;30.50;102049.00;;;;5081967;28;20191;-77
2023/07/10 11:08:16;;;;;;;3.55;1.08;;;;;30.60;102043.00;;;;5086312;28;20228;-77
2023/07/10 11:10:45;;;;;;;4.38;1.45;;;;;30.70;102038.00;;;;5080241;28;20187;-77
2023/07/10 11:13:22;;;;;;;2.72;1.45;;;;;30.60;102039.00;;;;5084406;28;20202;-77
2023/07/10 11:15:49;;;;;;;1.48;0.93;;;;;30.70;102034.00;;;;5084905;28;20218;-78
2023/07/10 11:18:18;;;;;;;3.60;1.00;;;;;30.60;102033.00;;;;5099130;28;20197;-77
2023/07/10 11:20:46;;;;;;;2.65;1.13;;;;;30.60;102027.00;;;;5083282;28;20224;-77
2023/07/10 11:23:31;;;;;;;9.32;1.33;;;;;30.50;102025.00;;;;5082520;28;20682;-77
2023/07/10 11:26:02;;;;;;;4.78;0.98;;;;;30.60;102024.00;;;;5088741;28;20209;-77
2023/07/10 11:28:32;;;;;;;2.78;0.93;;;;;30.70;102018.00;;;;5084672;28;20304;-77
2023/07/10 11:31:23;;;;;;;3.05;1.17;;;;;30.50;102017.00;;;;5083625;28;20225;-76
2023/07/10 11:33:53;;;;;;;5.43;1.38;;;;;30.70;102021.00;;;;5082957;28;20222;-77
2023/07/10 11:36:38;;;;;;;3.75;1.30;;;;;30.60;102025.00;;;;5084075;28;20668;-77
2023/07/10 11:39:18;;;;;;;1.77;0.60;;;;;30.60;102015.00;;;;5077515;28;20206;-77
2023/07/10 11:42:15;;;;;;;2.67;0.75;;;;;30.60;102015.00;;;;5067613;28;20668;-80
2023/07/10 11:44:46;;;;;;;4.20;0.65;;;;;30.70;102023.00;;;;5076313;28;20753;-79
2023/07/10 11:47:28;;;;;;;2.97;1.00;;;;;30.50;102027.00;;;;5084357;28;20243;-80
2023/07/10 11:50:25;;;;;;;5.75;0.90;;;;;30.40;102032.00;;;;5067783;28;20691;-79
2023/07/10 11:53:21;;;;;;;2.28;0.98;;;;;30.40;102019.00;;;;5042829;28;20201;-81
2023/07/10 11:55:58;;;;;;;2.35;0.98;;;;;30.40;102009.00;;;;5082035;28;20210;-80
2023/07/10 11:58:33;;;;;;;2.20;0.82;;;;;30.50;102005.00;;;;5084547;28;20915;-79
2023/07/10 12:01:15;;;;;;;3.20;0.75;;;;;30.40;102012.00;;;;5081787;28;20194;-80
2023/07/10 12:03:43;;;;;;;1.27;0.70;;;;;30.50;102012.00;;;;5084659;28;20209;-80
2023/07/10 12:06:18;;;;;;;4.00;0.95;;;;;30.40;102013.00;;;;5083765;28;20194;-79
2023/07/10 12:08:46;;;;;;;1.10;0.50;;;;;30.50;102010.00;;;;5081945;28;20221;-79
2023/07/10 12:11:30;;;;;;;3.28;0.85;;;;;30.30;102013.00;;;;5080915;28;20251;-79
2023/07/10 12:14:04;;;;;;;3.33;0.82;;;;;30.40;102009.00;;;;5080491;28;20190;-79
2023/07/10 12:16:33;;;;;;;2.35;0.82;;;;;30.40;102013.00;;;;5080802;28;20215;-79
2023/07/10 12:19:13;;;;;;;3.53;0.77;;;;;30.40;102019.00;;;;5084830;28;20202;-79
2023/07/10 12:21:41;;;;;;;1.50;0.63;;;;;30.40;102016.00;;;;5075780;28;20675;-80
2023/07/10 12:24:14;;;;;;;3.17;1.20;;;;;30.40;102012.00;;;;5095161;28;20590;-79